createdAt,value
2022-12-08T00:01:04.947Z,378.40
2022-12-08T00:03:31.802Z,380.00
2022-12-08T00:06:16.940Z,377.23
2022-12-08T00:09:02.030Z,376.92
2022-12-08T00:11:28.632Z,372.83
2022-12-08T00:13:55.175Z,372.55
2022-12-08T00:16:21.979Z,370.25
2022-12-08T00:18:48.656Z,373.50
2022-12-08T00:21:15.667Z,374.05
2022-12-08T00:23:42.375Z,372.95
2022-12-08T00:26:09.073Z,378.20
2022-12-08T00:28:35.741Z,380.30
2022-12-08T00:31:10.719Z,376.60
2022-12-08T00:33:37.826Z,374.20
2022-12-08T00:36:13.883Z,364.13
2022-12-08T00:38:41.726Z,372.42
2022-12-08T00:41:14.624Z,370.67
2022-12-08T00:43:41.655Z,369.80
2022-12-08T00:46:08.460Z,374.08
2022-12-08T00:48:35.195Z,368.53
2022-12-08T00:51:01.860Z,375.92
2022-12-08T00:53:30.050Z,368.45
2022-12-08T00:55:56.623Z,376.23
2022-12-08T00:58:23.222Z,380.92
2022-12-08T01:00:49.899Z,374.80
2022-12-08T01:03:16.539Z,368.73
2022-12-08T01:05:43.209Z,367.95
2022-12-08T01:08:09.884Z,369.67
2022-12-08T01:10:37.512Z,372.00
2022-12-08T01:13:04.755Z,371.65
2022-12-08T01:15:31.341Z,366.30
2022-12-08T01:17:57.902Z,364.87
2022-12-08T01:20:24.851Z,362.50
2022-12-08T01:22:51.383Z,357.10
2022-12-08T01:25:18.164Z,359.48
2022-12-08T01:27:44.772Z,357.45
2022-12-08T01:30:13.231Z,353.88
2022-12-08T01:32:39.880Z,360.60
2022-12-08T01:35:06.639Z,368.90
2022-12-08T01:37:33.174Z,369.85
2022-12-08T01:39:59.716Z,370.15
2022-12-08T01:42:26.459Z,374.43
2022-12-08T01:44:56.558Z,378.63
2022-12-08T01:47:28.102Z,373.65
2022-12-08T01:49:54.884Z,369.20
2022-12-08T01:52:29.054Z,373.63
2022-12-08T01:55:11.480Z,371.48
2022-12-08T01:57:43.888Z,368.95
2022-12-08T02:00:13.859Z,369.38
2022-12-08T02:03:00.917Z,374.75
2022-12-08T02:05:33.255Z,372.73
2022-12-08T02:08:04.341Z,381.85
2022-12-08T02:10:35.973Z,381.10
2022-12-08T02:13:04.582Z,383.35
2022-12-08T02:16:03.744Z,380.23
2022-12-08T02:19:22.111Z,382.23
2022-12-08T02:21:43.825Z,385.08
2022-12-08T02:24:17.329Z,386.30
2022-12-08T02:27:02.869Z,387.30
2022-12-08T02:29:41.469Z,381.20
2022-12-08T02:32:37.398Z,372.88
2022-12-08T02:35:25.285Z,375.17
2022-12-08T02:38:10.600Z,376.85
2022-12-08T02:40:53.090Z,369.55
2022-12-08T02:43:48.577Z,368.25
2022-12-08T02:46:24.732Z,369.05
2022-12-08T02:48:52.468Z,374.50
2022-12-08T02:51:19.535Z,372.65
2022-12-08T02:53:47.052Z,377.90
2022-12-08T02:56:45.292Z,377.30
2022-12-08T02:59:24.586Z,375.15
2022-12-08T03:02:30.687Z,375.02
2022-12-08T03:05:13.579Z,371.60
2022-12-08T03:08:09.251Z,376.30
2022-12-08T03:10:43.056Z,378.17
2022-12-08T03:13:14.370Z,382.58
2022-12-08T03:15:42.861Z,381.38
2022-12-08T03:18:15.531Z,371.23
2022-12-08T03:20:43.513Z,364.67
2022-12-08T03:23:13.157Z,369.63
2022-12-08T03:25:46.719Z,374.00
2022-12-08T03:28:13.562Z,378.73
2022-12-08T03:30:43.111Z,380.92
2022-12-08T03:33:16.428Z,374.20
2022-12-08T03:35:44.316Z,378.17
2022-12-08T03:38:14.382Z,373.35
2022-12-08T03:40:41.394Z,373.88
2022-12-08T03:43:08.085Z,376.95
2022-12-08T03:45:34.797Z,377.92
2022-12-08T03:48:01.646Z,387.65
2022-12-08T03:50:28.309Z,385.20
2022-12-08T03:52:54.895Z,379.80
2022-12-08T03:55:21.643Z,382.92
2022-12-08T03:57:48.200Z,391.55
2022-12-08T04:00:17.071Z,400.85
2022-12-08T04:02:43.864Z,408.98
2022-12-08T04:05:10.557Z,394.35
2022-12-08T04:07:37.306Z,381.50
2022-12-08T04:10:05.290Z,379.48
2022-12-08T04:12:32.038Z,381.67
2022-12-08T04:14:58.713Z,370.70
2022-12-08T04:17:25.307Z,383.60
2022-12-08T04:19:52.021Z,363.20
2022-12-08T04:22:18.572Z,406.35
2022-12-08T04:24:45.166Z,408.17
2022-12-08T04:27:11.710Z,398.63
2022-12-08T04:29:38.329Z,402.45
2022-12-08T04:32:05.291Z,395.40
2022-12-08T04:34:31.917Z,398.27
2022-12-08T04:36:58.483Z,392.58
2022-12-08T04:39:25.237Z,398.47
2022-12-08T04:41:51.756Z,399.45
2022-12-08T04:44:18.558Z,407.90
2022-12-08T04:46:45.163Z,404.80
2022-12-08T04:49:11.828Z,401.52
2022-12-08T04:51:38.388Z,404.10
2022-12-08T04:54:05.098Z,401.63
2022-12-08T04:56:31.648Z,402.50
2022-12-08T04:58:58.217Z,398.25
2022-12-08T05:01:24.832Z,404.30
2022-12-08T05:03:51.505Z,382.47
2022-12-08T05:06:18.120Z,379.33
2022-12-08T05:08:44.762Z,376.88
2022-12-08T05:11:12.623Z,378.10
2022-12-08T05:13:39.288Z,379.90
2022-12-08T05:16:12.192Z,385.48
2022-12-08T05:18:40.369Z,380.52
2022-12-08T05:21:07.694Z,384.65
2022-12-08T05:23:34.647Z,372.65
2022-12-08T05:26:01.636Z,378.08
2022-12-08T05:28:44.189Z,383.50
2022-12-08T05:31:13.606Z,388.45
2022-12-08T05:33:40.507Z,396.30
2022-12-08T05:36:08.510Z,390.52
2022-12-08T05:38:35.373Z,390.20
2022-12-08T05:41:01.992Z,382.45
2022-12-08T05:43:29.093Z,385.77
2022-12-08T05:45:55.740Z,379.20
2022-12-08T05:48:22.337Z,375.77
2022-12-08T05:50:50.128Z,377.48
2022-12-08T05:53:18.355Z,368.67
2022-12-08T05:55:45.591Z,367.40
2022-12-08T05:58:22.296Z,358.60
2022-12-08T06:00:50.216Z,349.33
2022-12-08T06:03:18.652Z,340.92
2022-12-08T06:05:46.735Z,333.55
2022-12-08T06:08:13.638Z,344.25
2022-12-08T06:10:42.144Z,353.05
2022-12-08T06:13:09.082Z,333.13
2022-12-08T06:15:36.296Z,332.10
2022-12-08T06:18:03.372Z,343.10
2022-12-08T06:20:30.395Z,348.60
2022-12-08T06:22:57.439Z,339.38
2022-12-08T06:25:27.232Z,349.70
2022-12-08T06:46:15.004Z,366.63
2022-12-08T06:48:42.106Z,358.85
2022-12-08T06:51:11.827Z,355.70
2022-12-08T06:53:39.194Z,349.35
2022-12-08T06:56:06.537Z,358.67
2022-12-08T06:58:33.898Z,362.38
2022-12-08T07:01:08.469Z,362.02
2022-12-08T07:03:35.972Z,344.73
2022-12-08T07:06:04.384Z,347.63
2022-12-08T07:08:32.665Z,353.73
2022-12-08T07:10:59.640Z,350.65
2022-12-08T07:13:26.593Z,352.65
2022-12-08T07:15:53.176Z,355.55
2022-12-08T07:18:19.809Z,363.30
2022-12-08T07:20:46.508Z,359.92
2022-12-08T07:23:13.267Z,341.17
2022-12-08T07:25:39.846Z,352.13
2022-12-08T07:28:08.816Z,368.58
2022-12-08T07:30:35.371Z,372.02
2022-12-08T07:33:03.088Z,373.35
2022-12-08T07:44:38.064Z,375.58
2022-12-08T08:05:22.682Z,364.25
2022-12-08T08:07:49.603Z,361.17
2022-12-08T08:10:16.200Z,364.15
2022-12-08T08:12:42.912Z,355.52
2022-12-08T08:15:13.067Z,354.73
